Terminal Aerodrome Forecast
Issued by NWS

Home | Current Version | Previous Version | Text Only | Print | Product List | Glossary On
Versions: 1 2 3 4 5 6 7 8 9 10 11 12 13 14 15
000
FTUS45 KABQ 230500
TAFLVS
TAF
KLVS 230538Z 2306/2406 VRB06KT P6SM SCT150
     FM231700 16010KT P6SM SCT100
     FM232000 16012G20KT P6SM SCT100
     FM240200 18010KT P6SM SCT150=

USA.gov is the U.S. government's official web portal to all federal, state and local government web resources and services.